Saint Charles, Louisiana
Current Conditions -  °F | °C
As of 9:35 PM on Saturday 24 Jan 2015 (Local Time) from KHUM Reporting Station
Clear Clear  
Wind Chill: 42°   Ceiling: Unl
Heat Index: 46°   Visibility: 7mi
Dew Point: 41°   Wind: 6mph
Humidity: 85%   Direction: 240°WSW
Pressure: 30.11"   Gusts: NA
Location:  29.7195°N, 90.5441°W
Report Text: KHUM 250335Z AUTO 24005KT 7SM CLR 08/05 A3011 RMK AO2 T00750051
Loading
Personal Weather Stations






























Interactive Weather Map New forecast layout! Learn more

10-Day Weather Forecast

Advertisements
Track Severe Weather on mobile